Terminal Aerodrome Forecast
Issued by NWS Jackson, MS

Home | Current Version | Previous Version | Text Only | Print | Product List | Glossary On
Versions: 1 2 3 4 5 6 7 8 9 10 11 12 13 14 15 16 17 18
000
FTUS44 KJAN 230900 AAA
TAFGWO
TAF AMD
KGWO 230904Z 2309/2406 00000KT 2SM BR FEW005 FEW100
      TEMPO 2309/2311 1/2SM FG VV001
     FM231100 00000KT 4SM BR FEW005 FEW100
     FM231400 VRB03KT P6SM FEW100
     FM231600 35005KT P6SM VCSH SCT050 BKN250=

USA.gov is the U.S. government's official web portal to all federal, state and local government web resources and services.